Time;durP1;ratioP1;P1;durP2;ratioP2;P2;SDS_P1;SDS_P2;PMS_P1;PMS_P2;Temp;Humidity;BMP_temperature;BMP_pressure;BME280_temperature;BME280_humidity;BME280_pressure;Samples;Min_cycle;Max_cycle;Signal;HPM_P1;HPM_P2
2022/05/10 00:00:56;;;;;;;0.40;0.40;;;;;;;10.36;65.62;101566.88;4973536;28;20227;-70
2022/05/10 00:03:26;;;;;;;0.60;0.60;;;;;;;10.33;65.43;101577.31;4973550;28;20664;-70
2022/05/10 00:05:53;;;;;;;0.30;0.30;;;;;;;10.30;65.89;101568.63;4972759;28;20235;-70
2022/05/10 00:08:19;;;;;;;0.60;0.60;;;;;;;10.24;66.81;101572.16;4973457;28;20219;-70
2022/05/10 00:10:47;;;;;;;0.30;0.30;;;;;;;10.17;66.74;101575.72;4973293;28;20750;-70
2022/05/10 00:13:14;;;;;;;0.40;0.40;;;;;;;10.13;66.43;101564.44;4973615;28;20215;-70
2022/05/10 00:15:42;;;;;;;0.67;0.67;;;;;;;10.15;66.40;101574.84;4976452;28;20206;-69
2022/05/10 00:18:13;;;;;;;0.50;0.50;;;;;;;10.16;67.00;101567.00;4972730;28;20234;-69
2022/05/10 00:20:41;;;;;;;0.50;0.50;;;;;;;10.12;66.84;101567.91;4972473;28;20203;-70
2022/05/10 00:23:08;;;;;;;0.30;0.30;;;;;;;10.09;67.59;101567.09;4972647;28;20207;-69
2022/05/10 00:25:34;;;;;;;0.37;0.37;;;;;;;10.07;69.81;101563.63;4972092;28;20213;-70
2022/05/10 00:28:01;;;;;;;0.20;0.20;;;;;;;9.98;67.85;101547.19;4969153;28;20206;-70
2022/05/10 00:30:28;;;;;;;0.30;0.30;;;;;;;9.98;66.91;101554.16;4970810;28;20827;-70
2022/05/10 00:32:54;;;;;;;0.50;0.50;;;;;;;9.93;67.36;101551.59;4972604;28;20921;-69
2022/05/10 00:35:25;;;;;;;1.17;0.50;;;;;;;9.89;69.15;101552.50;4972546;28;20204;-70
2022/05/10 00:37:54;;;;;;;0.20;0.20;;;;;;;9.85;70.35;101546.44;4967464;28;20216;-70
2022/05/10 00:40:23;;;;;;;0.40;0.40;;;;;;;9.78;69.75;101550.00;4972372;28;20218;-70
2022/05/10 00:42:55;;;;;;;0.33;0.33;;;;;;;9.74;71.50;101544.81;4972672;28;20222;-70
2022/05/10 00:45:26;;;;;;;0.30;0.30;;;;;;;9.70;73.47;101536.16;4970816;28;20210;-69
2022/05/10 00:48:03;;;;;;;0.40;0.40;;;;;;;9.63;72.01;101539.69;4972702;28;20212;-70
2022/05/10 00:50:36;;;;;;;2.53;0.80;;;;;;;9.58;71.01;101538.84;4971229;28;20228;-70
2022/05/10 00:53:07;;;;;;;0.40;0.40;;;;;;;9.52;71.28;101533.72;4972596;28;20669;-69
2022/05/10 00:55:40;;;;;;;0.40;0.40;;;;;;;9.46;70.96;101529.38;4970697;28;20209;-70
2022/05/10 00:58:17;;;;;;;0.80;0.80;;;;;;;9.42;71.24;101520.72;4972164;28;20198;-69
2022/05/10 01:00:44;;;;;;;0.40;0.40;;;;;;;9.44;74.64;101521.56;4984695;28;20209;-70
2022/05/10 01:03:16;;;;;;;0.60;0.60;;;;;;;9.37;74.65;101519.03;4969632;28;20760;-69
2022/05/10 01:05:50;;;;;;;0.30;0.30;;;;;;;9.29;74.29;101526.91;4971894;28;20273;-69
2022/05/10 01:08:22;;;;;;;0.47;0.47;;;;;;;9.31;79.04;101519.94;4975133;28;20284;-69
2022/05/10 01:10:53;;;;;;;0.20;0.20;;;;;;;9.29;78.22;101522.56;4970585;28;20277;-70
2022/05/10 01:13:27;;;;;;;0.40;0.40;;;;;;;9.31;81.67;101519.09;4979888;28;20210;-70
2022/05/10 01:16:01;;;;;;;0.20;0.20;;;;;;;9.28;83.34;101507.81;4973023;28;20736;-70
2022/05/10 01:18:28;;;;;;;0.43;0.43;;;;;;;9.14;79.52;101506.19;4971931;28;20260;-70
2022/05/10 01:21:01;;;;;;;0.40;0.40;;;;;;;9.04;80.77;101506.25;4972131;28;20206;-71
2022/05/10 01:24:03;;;;;;;0.30;0.30;;;;;;;8.95;82.09;101506.28;4972518;28;20209;-70
2022/05/10 01:26:41;;;;;;;0.63;0.60;;;;;;;9.02;87.90;101501.91;4969413;28;20208;-70
2022/05/10 01:29:13;;;;;;;0.20;0.20;;;;;;;8.97;89.43;101495.88;4968378;28;20222;-70
2022/05/10 01:31:46;;;;;;;0.50;0.40;;;;;;;8.86;86.38;101498.53;4972411;28;20195;-71
2022/05/10 01:34:19;;;;;;;0.30;0.30;;;;;;;8.66;85.17;101499.50;4972322;28;20202;-70
2022/05/10 01:36:50;;;;;;;0.23;0.23;;;;;;;8.62;88.26;101497.78;4971168;28;20587;-70
2022/05/10 01:39:24;;;;;;;0.47;0.47;;;;;;;8.63;90.62;101489.09;4971849;28;20233;-70
2022/05/10 01:42:07;;;;;;;0.40;0.40;;;;;;;8.55;90.20;101484.78;4978555;28;20217;-70
2022/05/10 01:44:40;;;;;;;0.30;0.30;;;;;;;8.57;92.37;101490.88;4977725;28;20194;-69
2022/05/10 01:47:11;;;;;;;0.30;0.30;;;;;;;8.42;88.85;101495.25;4971027;28;20277;-70
2022/05/10 01:49:43;;;;;;;0.50;0.50;;;;;;;8.33;92.46;101492.66;4972404;28;20899;-70
2022/05/10 01:52:15;;;;;;;0.20;0.20;;;;;;;8.23;91.78;101483.16;4972374;28;20205;-70
2022/05/10 01:55:22;;;;;;;1.20;0.50;;;;;;;8.19;93.48;101482.28;4976441;28;20198;-70
2022/05/10 01:57:49;;;;;;;0.40;0.40;;;;;;;8.25;96.28;101478.81;4971004;28;20205;-70
2022/05/10 02:00:22;;;;;;;0.23;0.23;;;;;;;8.25;97.27;101484.88;4978018;28;20232;-69
2022/05/10 02:02:53;;;;;;;0.30;0.30;;;;;;;8.20;97.33;101483.19;4963054;28;20210;-70
2022/05/10 02:05:28;;;;;;;0.23;0.23;;;;;;;8.17;97.01;101484.03;4972010;28;20209;-70
2022/05/10 02:07:59;;;;;;;0.50;0.30;;;;;;;8.00;94.22;101486.66;4971049;28;20210;-69
2022/05/10 02:10:31;;;;;;;1.40;0.63;;;;;;;8.03;97.29;101483.19;4970563;28;20225;-70
2022/05/10 02:13:06;;;;;;;0.17;0.17;;;;;;;7.92;96.27;101478.03;4965713;28;20213;-70
2022/05/10 02:15:41;;;;;;;0.90;0.80;;;;;;;7.90;97.09;101472.84;4963185;28;20218;-70
2022/05/10 02:18:15;;;;;;;0.60;0.60;;;;;;;7.87;97.53;101469.38;4970399;28;20582;-69
2022/05/10 02:20:46;;;;;;;0.20;0.20;;;;;;;7.77;97.13;101471.09;4970856;28;20224;-69
2022/05/10 02:23:19;;;;;;;0.20;0.20;;;;;;;7.69;96.21;101463.34;4972127;28;20214;-70
2022/05/10 02:25:52;;;;;;;0.20;0.20;;;;;;;7.85;100.00;101456.41;4970594;28;20669;-70
2022/05/10 02:28:26;;;;;;;0.47;0.47;;;;;;;7.69;96.20;101459.88;4973866;28;20198;-70
2022/05/10 02:30:58;;;;;;;0.60;0.40;;;;;;;7.70;98.46;101461.59;4973761;28;20206;-70
2022/05/10 02:33:25;;;;;;;0.40;0.40;;;;;;;7.71;100.00;101453.81;4971042;28;20209;-70
2022/05/10 02:35:54;;;;;;;0.30;0.30;;;;;;;7.57;97.83;101459.00;4971046;28;20290;-70
2022/05/10 02:38:23;;;;;;;0.27;0.27;;;;;;;7.56;99.62;101456.41;4971544;28;20546;-70
2022/05/10 02:40:52;;;;;;;0.50;0.50;;;;;;;7.71;100.00;101442.56;4969334;28;20237;-70
2022/05/10 02:43:23;;;;;;;0.50;0.30;;;;;;;7.71;100.00;101445.16;4970523;28;20280;-70
2022/05/10 02:45:50;;;;;;;0.43;0.43;;;;;;;7.66;100.00;101431.31;4971147;28;20206;-70
2022/05/10 02:48:24;;;;;;;0.13;0.13;;;;;;;7.53;100.00;101441.72;4970961;28;20285;-70
2022/05/10 02:50:50;;;;;;;1.70;0.53;;;;;;;7.48;100.00;101437.41;4970693;28;20204;-69
2022/05/10 02:53:18;;;;;;;0.30;0.30;;;;;;;7.42;100.00;101429.59;4971203;28;20658;-70
2022/05/10 02:55:51;;;;;;;0.60;0.60;;;;;;;7.37;100.00;101430.47;4974294;28;20562;-70
2022/05/10 02:58:25;;;;;;;0.10;0.10;;;;;;;7.41;100.00;101427.91;4970456;28;20211;-70
2022/05/10 03:00:54;;;;;;;0.50;0.50;;;;;;;7.34;100.00;101425.28;4969885;28;20688;-70
2022/05/10 03:03:27;;;;;;;0.27;0.27;;;;;;;7.29;100.00;101426.16;4969336;28;20221;-69
2022/05/10 03:05:53;;;;;;;0.10;0.10;;;;;;;7.37;100.00;101427.88;4971163;28;20654;-70
2022/05/10 03:08:20;;;;;;;0.60;0.57;;;;;;;7.35;100.00;101436.53;4969274;28;20210;-70
2022/05/10 03:10:46;;;;;;;0.40;0.40;;;;;;;7.37;100.00;101427.88;4970868;28;20202;-70
2022/05/10 03:13:13;;;;;;;0.20;0.20;;;;;;;7.48;100.00;101430.47;4970131;28;20206;-69
2022/05/10 03:15:40;;;;;;;0.67;0.60;;;;;;;7.42;100.00;101427.00;4952030;28;20674;-70
2022/05/10 03:18:07;;;;;;;1.33;0.70;;;;;;;7.45;100.00;101424.44;4971106;28;20607;-69
2022/05/10 03:20:35;;;;;;;0.20;0.20;;;;;;;7.44;100.00;101425.28;4970362;28;20217;-70
2022/05/10 03:23:02;;;;;;;0.13;0.10;;;;;;;7.45;100.00;101422.69;4971013;28;20304;-70
2022/05/10 03:25:31;;;;;;;0.50;0.50;;;;;;;7.39;100.00;101425.28;4970621;28;20570;-70
2022/05/10 03:27:59;;;;;;;0.40;0.40;;;;;;;7.48;100.00;101414.06;4974242;28;20672;-69
2022/05/10 03:30:26;;;;;;;1.00;0.47;;;;;;;7.38;100.00;101419.22;4972478;28;20264;-71
2022/05/10 03:32:53;;;;;;;0.20;0.20;;;;;;;7.47;100.00;101414.91;4970496;28;20205;-70
2022/05/10 03:35:19;;;;;;;0.23;0.23;;;;;;;7.47;100.00;101420.09;4970780;28;20740;-70
2022/05/10 03:37:47;;;;;;;0.10;0.10;;;;;;;7.50;100.00;101414.91;4971874;28;20223;-69
2022/05/10 03:40:14;;;;;;;0.23;0.23;;;;;;;7.41;100.00;101423.56;4974184;28;20215;-70
2022/05/10 03:42:45;;;;;;;0.23;0.23;;;;;;;7.32;100.00;101429.63;4968819;28;20218;-70
2022/05/10 03:45:12;;;;;;;0.53;0.50;;;;;;;7.42;100.00;101427.88;4970818;28;20205;-70
2022/05/10 03:47:39;;;;;;;0.40;0.40;;;;;;;7.49;100.00;101415.75;4970576;28;20584;-70
2022/05/10 03:50:08;;;;;;;0.23;0.23;;;;;;;7.66;100.00;101415.75;4970390;28;20288;-70
2022/05/10 03:52:35;;;;;;;0.10;0.10;;;;;;;7.61;100.00;101413.16;4970753;28;20244;-70
2022/05/10 03:55:03;;;;;;;0.53;0.53;;;;;;;7.57;100.00;101414.88;4967559;28;20215;-70
2022/05/10 03:57:30;;;;;;;0.23;0.23;;;;;;;7.44;100.00;101420.09;4972884;28;20208;-70
2022/05/10 03:59:56;;;;;;;0.97;0.20;;;;;;;7.52;100.00;101408.84;4976419;28;20229;-70
2022/05/10 04:02:22;;;;;;;0.30;0.30;;;;;;;7.49;100.00;101419.25;4963824;28;20722;-70
2022/05/10 04:04:49;;;;;;;0.40;0.33;;;;;;;7.70;100.00;101410.53;4971253;28;20218;-70
2022/05/10 04:07:16;;;;;;;0.20;0.20;;;;;;;7.72;100.00;101405.34;4966595;28;20752;-69
2022/05/10 04:09:42;;;;;;;0.20;0.20;;;;;;;7.78;100.00;101410.53;4970499;28;20249;-71
2022/05/10 04:12:10;;;;;;;0.30;0.30;;;;;;;7.91;100.00;101403.59;4970024;28;20206;-69
2022/05/10 04:14:37;;;;;;;0.40;0.40;;;;;;;8.05;100.00;101398.34;4969928;28;20648;-70
2022/05/10 04:17:04;;;;;;;0.73;0.73;;;;;;;8.13;100.00;101404.38;4970205;28;20210;-70
2022/05/10 04:19:30;;;;;;;0.13;0.13;;;;;;;8.27;100.00;101406.94;4974675;28;20229;-70
2022/05/10 04:21:57;;;;;;;0.60;0.50;;;;;;;8.32;100.00;101405.19;4968107;28;20213;-70
2022/05/10 04:24:23;;;;;;;0.20;0.20;;;;;;;8.32;100.00;101405.19;4972755;28;20225;-70
2022/05/10 04:26:50;;;;;;;0.37;0.37;;;;;;;8.41;100.00;101412.03;4971175;28;20728;-69
2022/05/10 04:29:18;;;;;;;1.40;0.47;;;;;;;8.49;100.00;101411.19;4971041;28;20225;-70
2022/05/10 04:31:44;;;;;;;0.40;0.40;;;;;;;8.52;100.00;101408.56;4969296;28;20202;-70
2022/05/10 04:34:11;;;;;;;0.63;0.63;;;;;;;8.58;100.00;101407.66;4969313;28;20205;-69
2022/05/10 04:36:37;;;;;;;0.40;0.40;;;;;;;8.74;100.00;101410.19;4968959;28;20597;-70
2022/05/10 04:39:04;;;;;;;0.20;0.20;;;;;;;8.93;100.00;101409.19;4972098;28;20229;-70
2022/05/10 04:41:32;;;;;;;0.37;0.37;;;;;;;8.96;96.36;101416.13;4973681;28;20206;-69
2022/05/10 04:44:00;;;;;;;0.60;0.60;;;;;;;9.01;90.42;101420.41;4971729;28;20213;-69
2022/05/10 04:46:30;;;;;;;0.20;0.20;;;;;;;9.12;89.85;101422.94;4971264;28;20289;-70
2022/05/10 04:48:57;;;;;;;0.30;0.30;;;;;;;9.24;90.46;101424.59;4968029;28;20225;-70
2022/05/10 04:51:24;;;;;;;0.40;0.40;;;;;;;9.34;89.04;101426.25;4972345;28;20206;-70
2022/05/10 04:53:50;;;;;;;0.40;0.40;;;;;;;9.50;89.58;101418.28;4972244;28;20281;-70
2022/05/10 04:56:17;;;;;;;0.60;0.60;;;;;;;9.68;92.56;101414.66;4970485;28;20194;-70
2022/05/10 04:58:43;;;;;;;0.60;0.60;;;;;;;9.73;87.94;101425.91;4975287;28;20218;-70
2022/05/10 05:01:17;;;;;;;0.33;0.33;;;;;;;9.83;86.51;101423.19;4972140;28;20657;-71
2022/05/10 05:03:47;;;;;;;0.23;0.23;;;;;;;9.84;84.67;101424.91;4971618;28;20217;-69
2022/05/10 05:06:14;;;;;;;0.30;0.30;;;;;;;9.91;84.28;101427.47;4971955;28;20256;-70
2022/05/10 05:08:41;;;;;;;0.50;0.50;;;;;;;10.06;86.48;101419.47;4970453;28;20222;-70
2022/05/10 05:11:07;;;;;;;0.37;0.37;;;;;;;10.08;82.59;101425.53;4975364;28;20208;-70
2022/05/10 05:13:35;;;;;;;0.40;0.40;;;;;;;10.12;81.60;101423.75;4974250;28;20678;-70
2022/05/10 05:16:01;;;;;;;0.30;0.30;;;;;;;10.19;81.14;101426.25;4969246;28;20662;-70
2022/05/10 05:18:28;;;;;;;0.43;0.43;;;;;;;10.33;82.06;101422.66;4971243;28;20617;-69
2022/05/10 05:20:56;;;;;;;0.30;0.30;;;;;;;10.44;81.61;101420.78;4968707;28;20670;-70
2022/05/10 05:23:23;;;;;;;0.60;0.60;;;;;;;10.55;78.99;101425.84;4975205;28;20211;-70
2022/05/10 05:25:52;;;;;;;0.67;0.67;;;;;;;10.68;80.89;101416.97;4955095;28;20211;-70
2022/05/10 05:28:19;;;;;;;0.30;0.30;;;;;;;10.84;80.62;101422.84;4969108;28;20208;-70
2022/05/10 05:30:46;;;;;;;0.20;0.20;;;;;;;10.98;79.07;101425.25;4973715;28;20200;-70
2022/05/10 05:33:13;;;;;;;0.63;0.63;;;;;;;11.13;80.54;101417.19;4972579;28;20212;-70
2022/05/10 05:35:40;;;;;;;0.40;0.40;;;;;;;11.27;83.28;101421.31;4971244;28;20200;-70
2022/05/10 05:38:08;;;;;;;0.40;0.40;;;;;;;11.40;82.07;101422.84;4971451;28;20699;-70
2022/05/10 05:40:36;;;;;;;0.47;0.47;;;;;;;11.48;80.44;101431.38;4972798;28;20690;-68
2022/05/10 05:43:02;;;;;;;0.20;0.20;;;;;;;11.55;78.21;101430.38;4970984;28;20593;-69
2022/05/10 05:45:29;;;;;;;0.27;0.27;;;;;;;11.65;75.63;101427.63;4972261;28;20600;-68
2022/05/10 05:48:01;;;;;;;0.37;0.33;;;;;;;11.81;76.38;101423.00;4967659;28;20186;-70
2022/05/10 05:50:27;;;;;;;0.33;0.33;;;;;;;11.90;75.61;101417.59;4972338;28;20226;-70
2022/05/10 05:52:54;;;;;;;0.93;0.70;;;;;;;12.00;75.00;101411.34;4970845;28;20844;-70
2022/05/10 05:55:22;;;;;;;0.37;0.37;;;;;;;12.11;74.56;101417.19;4971739;28;20213;-70
2022/05/10 05:57:49;;;;;;;0.20;0.20;;;;;;;12.30;76.06;101416.84;4974767;28;20211;-70
2022/05/10 06:00:19;;;;;;;0.27;0.27;;;;;;;12.40;74.05;101418.38;4974300;28;20582;-69
2022/05/10 06:02:47;;;;;;;0.10;0.10;;;;;;;12.53;73.90;101411.13;4973339;28;20220;-70
2022/05/10 06:05:14;;;;;;;0.13;0.13;;;;;;;12.64;72.11;101413.50;4972818;28;20228;-70
2022/05/10 06:07:40;;;;;;;0.50;0.40;;;;;;;12.74;72.20;101407.16;4972086;28;20206;-69
2022/05/10 06:10:09;;;;;;;0.20;0.20;;;;;;;12.90;72.34;101406.81;4973570;28;20226;-70
2022/05/10 06:12:37;;;;;;;0.13;0.13;;;;;;;13.04;71.69;101405.59;4972810;28;21328;-70
2022/05/10 06:15:09;;;;;;;0.00;0.00;;;;;;;13.15;71.44;101401.84;4954945;28;20202;-71
2022/05/10 06:17:36;;;;;;;0.13;0.13;;;;;;;13.31;69.79;101400.59;4957605;28;20713;-71
2022/05/10 06:20:06;;;;;;;0.00;0.00;;;;;;;13.43;70.61;101399.44;4972256;28;20227;-71
2022/05/10 06:22:33;;;;;;;0.20;0.20;;;;;;;13.57;70.35;101389.44;4953805;28;20665;-71
2022/05/10 06:25:00;;;;;;;0.70;0.30;;;;;;;13.69;68.93;101388.28;4974563;28;20194;-71
2022/05/10 06:27:27;;;;;;;1.70;0.47;;;;;;;13.87;69.85;101389.53;4969657;28;20197;-70
2022/05/10 06:29:54;;;;;;;0.13;0.13;;;;;;;13.98;69.17;101387.47;4970015;28;20306;-68
2022/05/10 06:32:22;;;;;;;1.20;0.73;;;;;;;14.08;68.48;101384.59;4970723;28;20199;-70
2022/05/10 06:34:49;;;;;;;0.30;0.20;;;;;;;14.22;67.52;101382.41;4970304;28;20200;-70
2022/05/10 06:39:56;;;;;;;0.60;0.40;;;;;;;14.46;66.64;101379.94;4970801;28;20261;-70
2022/05/10 06:42:23;;;;;;;0.10;0.10;;;;;;;14.60;67.47;101369.94;4968338;28;20720;-70
2022/05/10 06:44:50;;;;;;;0.20;0.20;;;;;;;14.69;67.39;101381.94;4969626;28;20209;-70
2022/05/10 06:47:18;;;;;;;0.13;0.13;;;;;;;14.88;67.08;101374.31;4969713;28;20248;-70
2022/05/10 06:49:44;;;;;;;0.20;0.20;;;;;;;15.02;65.30;101379.13;4970604;28;20230;-69
2022/05/10 06:52:11;;;;;;;0.10;0.10;;;;;;;15.16;66.21;101379.50;4972140;28;20197;-70
2022/05/10 06:54:37;;;;;;;0.47;0.37;;;;;;;15.26;65.41;101373.03;4970588;28;20584;-70
2022/05/10 06:57:04;;;;;;;0.10;0.10;;;;;;;15.41;66.11;101376.06;4973228;28;20194;-70
2022/05/10 06:59:31;;;;;;;0.20;0.10;;;;;;;15.52;66.58;101377.41;4968734;28;20234;-69
2022/05/10 07:01:57;;;;;;;0.30;0.30;;;;;;;15.64;64.35;101381.38;4968913;28;20207;-69
2022/05/10 07:04:24;;;;;;;0.20;0.20;;;;;;;15.79;63.94;101373.91;4968197;28;20225;-71
2022/05/10 07:06:51;;;;;;;0.37;0.33;;;;;;;15.93;64.65;101374.25;4965389;28;20641;-69
2022/05/10 07:09:18;;;;;;;0.17;0.17;;;;;;;16.08;63.88;101368.44;4967174;28;20224;-71
2022/05/10 07:11:46;;;;;;;0.00;0.00;;;;;;;16.18;63.44;101368.94;4966699;28;20244;-69
2022/05/10 07:14:12;;;;;;;0.17;0.17;;;;;;;16.34;63.54;101371.84;4969601;28;20200;-70
2022/05/10 07:16:38;;;;;;;0.13;0.13;;;;;;;16.45;62.58;101367.03;4968121;28;20231;-71
2022/05/10 07:19:05;;;;;;;0.30;0.30;;;;;;;16.45;60.84;101372.28;4967307;28;20268;-70
2022/05/10 07:21:33;;;;;;;0.63;0.20;;;;;;;16.58;61.29;101363.91;4967920;28;20211;-70
2022/05/10 07:24:01;;;;;;;0.00;0.00;;;;;;;16.74;62.28;101362.38;4965228;28;20223;-71
2022/05/10 07:26:27;;;;;;;0.10;0.10;;;;;;;16.91;61.06;101367.00;4970787;28;20229;-70
2022/05/10 07:28:53;;;;;;;0.00;0.00;;;;;;;17.06;61.40;101362.84;4969680;28;20223;-71
2022/05/10 07:31:20;;;;;;;0.37;0.30;;;;;;;17.15;60.98;101359.88;4970324;28;20203;-70
2022/05/10 07:33:46;;;;;;;0.30;0.30;;;;;;;17.21;60.51;101366.66;4972479;28;20208;-70
2022/05/10 07:36:25;;;;;;;3.30;0.53;;;;;;;17.23;58.30;101365.66;4969515;28;20229;-68
2022/05/10 07:38:53;;;;;;;0.60;0.50;;;;;;;17.35;60.32;101366.06;4972146;28;20342;-71
2022/05/10 07:41:22;;;;;;;0.40;0.40;;;;;;;17.48;57.43;101367.22;4971561;28;20201;-70
2022/05/10 07:43:50;;;;;;;0.17;0.17;;;;;;;17.48;57.62;101364.59;4964956;28;20228;-69
2022/05/10 07:46:17;;;;;;;0.27;0.27;;;;;;;17.60;57.42;101364.06;4969117;28;20670;-70
2022/05/10 07:48:44;;;;;;;0.40;0.10;;;;;;;17.78;57.76;101359.78;4969449;28;20226;-70
2022/05/10 07:51:10;;;;;;;0.30;0.30;;;;;;;17.77;56.71;101355.41;4969946;28;20194;-71
2022/05/10 07:53:37;;;;;;;0.10;0.10;;;;;;;17.89;55.26;101354.03;4969149;28;20202;-71
2022/05/10 07:56:05;;;;;;;0.27;0.23;;;;;;;18.01;55.67;101355.28;4969278;28;20212;-71
2022/05/10 07:58:32;;;;;;;0.53;0.30;;;;;;;18.19;54.12;101350.94;4968628;28;20229;-71
2022/05/10 08:00:59;;;;;;;0.57;0.23;;;;;;;18.22;55.74;101342.84;4967890;28;20202;-70
2022/05/10 08:03:27;;;;;;;0.20;0.20;;;;;;;18.20;53.67;101351.78;4969119;28;20217;-71
2022/05/10 08:05:55;;;;;;;0.60;0.43;;;;;;;18.15;54.91;101342.31;4967993;28;20201;-70
2022/05/10 08:08:23;;;;;;;0.47;0.33;;;;;;;18.22;54.58;101348.13;4968718;28;20202;-70
2022/05/10 08:10:50;;;;;;;0.10;0.10;;;;;;;18.42;54.09;101349.00;4968604;28;20206;-71
2022/05/10 08:13:22;;;;;;;0.20;0.20;;;;;;;18.56;54.35;101343.91;4975843;28;20197;-71
2022/05/10 08:15:50;;;;;;;1.00;0.30;;;;;;;18.85;55.50;101337.22;4972878;28;20571;-71
2022/05/10 08:18:18;;;;;;;0.50;0.50;;;;;;;18.92;53.20;101343.06;4972580;28;20238;-71
2022/05/10 08:20:45;;;;;;;0.53;0.40;;;;;;;19.05;49.74;101345.94;4972233;28;20201;-69
2022/05/10 08:23:16;;;;;;;0.17;0.17;;;;;;;19.06;50.62;101355.56;4972595;28;20213;-69
2022/05/10 08:25:42;;;;;;;0.80;0.40;;;;;;;19.06;49.60;101343.22;4973725;28;20198;-70
2022/05/10 08:28:13;;;;;;;2.77;0.20;;;;;;;19.06;51.64;101337.91;4973324;28;20209;-71
2022/05/10 08:30:43;;;;;;;0.70;0.43;;;;;;;19.19;51.34;101339.94;4972952;28;20204;-71
2022/05/10 08:33:11;;;;;;;0.60;0.23;;;;;;;19.29;50.61;101338.53;4973557;28;20198;-68
2022/05/10 08:35:38;;;;;;;0.27;0.27;;;;;;;19.41;49.69;101337.91;4972884;28;20194;-69
2022/05/10 08:38:05;;;;;;;0.17;0.17;;;;;;;19.48;52.68;101330.53;4972329;28;20209;-70
2022/05/10 08:40:34;;;;;;;0.30;0.30;;;;;;;19.63;51.26;101327.06;4954133;28;20225;-71
2022/05/10 08:43:05;;;;;;;0.63;0.30;;;;;;;19.69;49.86;101336.47;4973278;28;20206;-70
2022/05/10 08:45:37;;;;;;;0.10;0.10;;;;;;;19.70;50.33;101332.91;4972731;28;20225;-68
2022/05/10 08:48:06;;;;;;;0.63;0.40;;;;;;;19.70;51.32;101322.31;4974137;28;20205;-71
2022/05/10 08:50:32;;;;;;;0.40;0.30;;;;;;;19.88;47.40;101328.44;4972277;28;20256;-70
2022/05/10 08:53:01;;;;;;;0.53;0.30;;;;;;;20.22;46.09;101327.44;4972204;28;20213;-71
2022/05/10 08:55:30;;;;;;;0.10;0.10;;;;;;;20.44;46.77;101320.94;4970214;28;20284;-70
2022/05/10 08:58:06;;;;;;;1.03;0.40;;;;;;;20.43;45.37;101325.38;4952792;28;20204;-71
2022/05/10 09:00:41;;;;;;;0.20;0.20;;;;;;;20.53;45.98;101319.56;4971352;28;20205;-71
2022/05/10 09:03:22;;;;;;;0.20;0.20;;;;;;;20.75;47.40;101316.56;4973717;28;20292;-71
2022/05/10 09:05:50;;;;;;;0.20;0.20;;;;;;;20.91;47.02;101311.22;4969945;28;20209;-71
2022/05/10 09:08:24;;;;;;;0.40;0.40;;;;;;;21.02;47.94;101306.16;4973943;28;20225;-70
2022/05/10 09:10:53;;;;;;;0.83;0.70;;;;;;;21.02;45.17;101307.94;4971425;28;20642;-71
2022/05/10 09:13:22;;;;;;;0.40;0.40;;;;;;;20.93;44.63;101307.53;4970181;28;20214;-70
2022/05/10 09:15:52;;;;;;;0.30;0.30;;;;;;;21.13;47.90;101298.41;4971139;28;20213;-71
2022/05/10 09:18:23;;;;;;;0.57;0.57;;;;;;;21.17;46.16;101304.38;4967901;28;20210;-71
2022/05/10 09:20:59;;;;;;;0.47;0.40;;;;;;;21.28;45.61;101299.28;4970724;28;20797;-71
2022/05/10 09:23:33;;;;;;;1.33;0.20;;;;;;;21.40;45.25;101299.47;4969805;28;20209;-70
2022/05/10 09:26:00;;;;;;;0.33;0.30;;;;;;;21.51;47.38;101289.94;4971373;28;20277;-70
2022/05/10 09:28:34;;;;;;;0.33;0.27;;;;;;;21.56;42.22;101302.91;4968846;28;20225;-71
2022/05/10 09:37:11;;;;;;;0.13;0.13;;;;;;;21.99;43.76;101286.97;4969799;28;20655;-71
2022/05/10 09:39:37;;;;;;;0.17;0.17;;;;;;;22.18;44.40;101277.81;4975406;28;20567;-71
2022/05/10 09:42:04;;;;;;;0.53;0.50;;;;;;;22.31;45.42;101273.44;4971138;28;20431;-71
2022/05/10 09:44:30;;;;;;;0.20;0.20;;;;;;;22.34;43.80;101275.03;4971561;28;20246;-70
2022/05/10 09:47:11;;;;;;;0.13;0.13;;;;;;;22.37;42.94;101280.16;4963311;28;20237;-71
2022/05/10 09:49:40;;;;;;;0.20;0.20;;;;;;;22.49;41.49;101280.19;4969487;28;20228;-71
2022/05/10 09:52:16;;;;;;;0.73;0.57;;;;;;;22.63;42.43;101279.28;4968707;28;20252;-70
2022/05/10 09:54:44;;;;;;;0.37;0.37;;;;;;;22.63;41.93;101278.44;4967641;28;20206;-71
2022/05/10 09:57:24;;;;;;;0.47;0.10;;;;;;;22.52;43.43;101270.34;4965549;28;20209;-71
2022/05/10 09:59:51;;;;;;;0.33;0.30;;;;;;;22.65;42.11;101261.41;4972959;28;20566;-69
2022/05/10 10:02:30;;;;;;;1.40;0.53;;;;;;;22.54;40.40;101263.09;4970794;28;20210;-71
2022/05/10 10:04:58;;;;;;;0.60;0.50;;;;;;;22.56;42.22;101253.22;4971740;28;20673;-71
2022/05/10 10:07:28;;;;;;;0.20;0.20;;;;;;;22.77;42.83;101248.28;4963005;28;20555;-71
2022/05/10 10:09:56;;;;;;;0.30;0.30;;;;;;;22.95;41.75;101246.16;4965366;28;20214;-71
2022/05/10 10:12:33;;;;;;;0.20;0.20;;;;;;;22.81;42.70;101237.34;4966561;28;20585;-70
2022/05/10 10:15:02;;;;;;;0.27;0.27;;;;;;;22.78;40.05;101239.31;4967275;28;20201;-69
2022/05/10 10:17:31;;;;;;;0.30;0.30;;;;;;;22.93;42.32;101230.31;4973816;28;20202;-70
2022/05/10 10:20:06;;;;;;;1.80;0.30;;;;;;;22.78;39.01;101239.31;4969643;28;20750;-71
2022/05/10 10:22:39;;;;;;;0.10;0.10;;;;;;;22.80;42.39;101224.16;4968551;28;20193;-70
2022/05/10 10:25:11;;;;;;;0.20;0.20;;;;;;;22.89;40.55;101220.84;4974286;28;20707;-71
2022/05/10 10:27:41;;;;;;;0.60;0.47;;;;;;;23.10;43.04;101213.22;4970379;28;20202;-71
2022/05/10 10:30:23;;;;;;;0.50;0.50;;;;;;;23.23;41.13;101216.72;4968724;28;20309;-70
2022/05/10 10:32:54;;;;;;;0.10;0.10;;;;;;;23.15;40.99;101216.41;4968596;28;20201;-71
2022/05/10 10:35:32;;;;;;;0.55;0.30;;;;;;;23.29;41.84;101207.47;4963478;28;20198;-70
2022/05/10 10:38:07;;;;;;;0.10;0.10;;;;;;;23.44;38.97;101205.53;4968702;28;20256;-70
2022/05/10 10:40:37;;;;;;;0.20;0.20;;;;;;;23.51;39.65;101208.59;4968475;28;20205;-70
2022/05/10 10:43:11;;;;;;;0.50;0.30;;;;;;;23.55;38.61;101192.31;4969028;28;20671;-70
2022/05/10 10:45:41;;;;;;;0.65;0.40;;;;;;;23.63;37.27;101203.25;4966957;28;20254;-71
2022/05/10 10:48:25;;;;;;;0.20;0.20;;;;;;;23.78;39.39;101192.44;4968873;28;20198;-71
2022/05/10 10:50:54;;;;;;;0.43;0.43;;;;;;;23.93;40.01;101194.00;4967831;28;20209;-71
2022/05/10 10:53:23;;;;;;;0.20;0.20;;;;;;;24.06;38.66;101190.44;4974365;28;20208;-71
2022/05/10 10:56:01;;;;;;;0.30;0.20;;;;;;;24.13;37.45;101194.34;4968211;28;20214;-71
2022/05/10 10:58:38;;;;;;;0.20;0.20;;;;;;;23.96;38.01;101199.13;4968920;28;20236;-71
2022/05/10 11:01:14;;;;;;;0.17;0.17;;;;;;;23.94;36.71;101189.53;4966273;28;20210;-71
2022/05/10 11:03:52;;;;;;;0.20;0.13;;;;;;;23.91;36.42;101187.97;4968548;28;20202;-70
2022/05/10 11:06:24;;;;;;;0.20;0.20;;;;;;;24.01;37.05;101185.47;4965989;28;20324;-71
2022/05/10 11:09:09;;;;;;;0.05;0.05;;;;;;;24.07;37.43;101178.84;4968800;28;20321;-71
2022/05/10 11:11:49;;;;;;;0.10;0.10;;;;;;;24.13;37.41;101184.56;4967543;28;20206;-70
2022/05/10 11:14:30;;;;;;;0.38;0.32;;;;;;;24.09;37.11;101185.72;4966700;28;20198;-70
2022/05/10 11:17:09;;;;;;;0.47;0.20;;;;;;;24.07;35.28;101179.69;4968680;28;20224;-71
2022/05/10 11:19:50;;;;;;;0.20;0.20;;;;;;;23.96;34.53;101180.47;4967953;28;20225;-70
2022/05/10 11:22:31;;;;;;;0.20;0.20;;;;;;;23.93;35.68;101174.53;4966378;28;20212;-70
2022/05/10 11:25:06;;;;;;;0.15;0.15;;;;;;;24.02;34.85;101173.00;4967922;28;20214;-71
2022/05/10 11:27:53;;;;;;;0.20;0.20;;;;;;;24.20;34.58;101171.63;4968589;28;20198;-71
2022/05/10 11:30:22;;;;;;;0.30;0.30;;;;;;;24.15;34.62;101166.66;4967562;28;20226;-71
2022/05/10 11:33:10;;;;;;;0.22;0.22;;;;;;;24.11;34.78;101172.31;4967570;28;20204;-71
2022/05/10 11:36:02;;;;;;;0.20;0.20;;;;;;;24.06;36.30;101148.66;4962284;28;20310;-69
2022/05/10 11:39:07;;;;;;;0.20;0.20;;;;;;;24.26;36.92;101149.84;4968330;28;20846;-70
2022/05/10 11:41:37;;;;;;;0.52;0.30;;;;;;;24.48;38.72;101142.88;4965984;28;20214;-71
2022/05/10 11:44:25;;;;;;;0.20;0.20;;;;;;;24.37;35.64;101152.53;4961819;28;20202;-71
2022/05/10 11:47:26;;;;;;;0.15;0.15;;;;;;;24.31;35.71;101145.03;4973875;28;20190;-71
2022/05/10 11:50:20;;;;;;;0.30;0.30;;;;;;;24.30;34.07;101145.13;4971060;28;20225;-71